sensor_id;sensor_type;location;lat;lon;timestamp;P1;durP1;ratioP1;P2;durP2;ratioP2
11384;SDS011;5747;56.748;13.882;2023-08-06T00:00:26;4.20;;;1.90;;
11384;SDS011;5747;56.748;13.882;2023-08-06T00:02:54;4.17;;;2.00;;
11384;SDS011;5747;56.748;13.882;2023-08-06T00:05:23;5.10;;;2.10;;
11384;SDS011;5747;56.748;13.882;2023-08-06T00:07:51;2.73;;;1.50;;
11384;SDS011;5747;56.748;13.882;2023-08-06T00:10:20;1.90;;;1.53;;
11384;SDS011;5747;56.748;13.882;2023-08-06T00:12:48;7.70;;;1.90;;
11384;SDS011;5747;56.748;13.882;2023-08-06T00:15:17;3.60;;;1.80;;
11384;SDS011;5747;56.748;13.882;2023-08-06T00:17:45;3.73;;;1.63;;
11384;SDS011;5747;56.748;13.882;2023-08-06T00:20:13;3.70;;;1.80;;
11384;SDS011;5747;56.748;13.882;2023-08-06T00:22:42;4.70;;;1.90;;
11384;SDS011;5747;56.748;13.882;2023-08-06T00:25:10;4.00;;;1.73;;
11384;SDS011;5747;56.748;13.882;2023-08-06T00:27:39;6.23;;;2.00;;
11384;SDS011;5747;56.748;13.882;2023-08-06T00:30:07;3.67;;;2.13;;
11384;SDS011;5747;56.748;13.882;2023-08-06T00:32:36;2.70;;;2.00;;
11384;SDS011;5747;56.748;13.882;2023-08-06T00:35:04;8.47;;;2.13;;
11384;SDS011;5747;56.748;13.882;2023-08-06T00:37:33;4.23;;;2.27;;
11384;SDS011;5747;56.748;13.882;2023-08-06T00:40:01;3.13;;;1.70;;
11384;SDS011;5747;56.748;13.882;2023-08-06T00:42:30;2.57;;;1.90;;
11384;SDS011;5747;56.748;13.882;2023-08-06T00:44:59;5.30;;;2.00;;
11384;SDS011;5747;56.748;13.882;2023-08-06T00:47:28;4.13;;;2.13;;
11384;SDS011;5747;56.748;13.882;2023-08-06T00:49:56;3.07;;;1.87;;
11384;SDS011;5747;56.748;13.882;2023-08-06T00:52:24;5.23;;;1.90;;
11384;SDS011;5747;56.748;13.882;2023-08-06T00:54:53;4.43;;;2.00;;
11384;SDS011;5747;56.748;13.882;2023-08-06T00:57:21;3.10;;;2.00;;
11384;SDS011;5747;56.748;13.882;2023-08-06T00:59:52;5.57;;;2.30;;
11384;SDS011;5747;56.748;13.882;2023-08-06T01:02:22;4.33;;;1.80;;
11384;SDS011;5747;56.748;13.882;2023-08-06T01:04:51;5.37;;;2.60;;
11384;SDS011;5747;56.748;13.882;2023-08-06T01:07:21;3.97;;;2.10;;
11384;SDS011;5747;56.748;13.882;2023-08-06T01:10:02;2.67;;;1.90;;
11384;SDS011;5747;56.748;13.882;2023-08-06T01:12:48;164.33;;;6.63;;
11384;SDS011;5747;56.748;13.882;2023-08-06T01:15:20;77.07;;;4.80;;
11384;SDS011;5747;56.748;13.882;2023-08-06T01:17:53;8.10;;;1.97;;
11384;SDS011;5747;56.748;13.882;2023-08-06T01:20:22;5.50;;;1.80;;
11384;SDS011;5747;56.748;13.882;2023-08-06T01:22:56;2.27;;;1.77;;
11384;SDS011;5747;56.748;13.882;2023-08-06T01:25:26;4.17;;;1.90;;
11384;SDS011;5747;56.748;13.882;2023-08-06T01:27:58;3.30;;;2.40;;
11384;SDS011;5747;56.748;13.882;2023-08-06T01:30:32;5.30;;;2.20;;
11384;SDS011;5747;56.748;13.882;2023-08-06T01:33:04;3.20;;;2.33;;
11384;SDS011;5747;56.748;13.882;2023-08-06T01:35:36;2.43;;;2.13;;
11384;SDS011;5747;56.748;13.882;2023-08-06T01:38:05;2.30;;;2.10;;
11384;SDS011;5747;56.748;13.882;2023-08-06T01:40:33;2.30;;;2.00;;
11384;SDS011;5747;56.748;13.882;2023-08-06T01:43:02;25.90;;;2.97;;
11384;SDS011;5747;56.748;13.882;2023-08-06T01:45:30;10.47;;;2.23;;
11384;SDS011;5747;56.748;13.882;2023-08-06T01:47:58;7.87;;;2.00;;
11384;SDS011;5747;56.748;13.882;2023-08-06T01:50:26;7.10;;;1.80;;
11384;SDS011;5747;56.748;13.882;2023-08-06T01:52:55;3.73;;;1.90;;
11384;SDS011;5747;56.748;13.882;2023-08-06T01:55:23;5.17;;;2.20;;
11384;SDS011;5747;56.748;13.882;2023-08-06T01:57:52;2.83;;;1.60;;
11384;SDS011;5747;56.748;13.882;2023-08-06T02:00:20;5.00;;;1.80;;
11384;SDS011;5747;56.748;13.882;2023-08-06T02:02:48;6.50;;;2.40;;
11384;SDS011;5747;56.748;13.882;2023-08-06T02:05:16;4.47;;;1.87;;
11384;SDS011;5747;56.748;13.882;2023-08-06T02:07:44;5.00;;;1.90;;
11384;SDS011;5747;56.748;13.882;2023-08-06T02:10:14;6.20;;;1.87;;
11384;SDS011;5747;56.748;13.882;2023-08-06T02:12:42;6.73;;;2.00;;
11384;SDS011;5747;56.748;13.882;2023-08-06T02:15:10;2.00;;;1.80;;
11384;SDS011;5747;56.748;13.882;2023-08-06T02:17:38;4.30;;;1.80;;
11384;SDS011;5747;56.748;13.882;2023-08-06T02:20:07;5.83;;;1.90;;
11384;SDS011;5747;56.748;13.882;2023-08-06T02:22:35;3.20;;;1.97;;
11384;SDS011;5747;56.748;13.882;2023-08-06T02:25:04;3.43;;;1.90;;
11384;SDS011;5747;56.748;13.882;2023-08-06T02:27:34;3.03;;;1.93;;
11384;SDS011;5747;56.748;13.882;2023-08-06T02:30:02;7.47;;;1.80;;
11384;SDS011;5747;56.748;13.882;2023-08-06T02:32:31;3.73;;;1.60;;
11384;SDS011;5747;56.748;13.882;2023-08-06T02:35:02;3.73;;;1.73;;
11384;SDS011;5747;56.748;13.882;2023-08-06T02:37:32;5.53;;;2.30;;
11384;SDS011;5747;56.748;13.882;2023-08-06T02:40:01;5.27;;;2.00;;
11384;SDS011;5747;56.748;13.882;2023-08-06T02:42:29;4.77;;;1.70;;
11384;SDS011;5747;56.748;13.882;2023-08-06T02:44:59;2.90;;;1.70;;
11384;SDS011;5747;56.748;13.882;2023-08-06T02:47:28;4.20;;;1.93;;
11384;SDS011;5747;56.748;13.882;2023-08-06T02:49:56;6.03;;;1.87;;
11384;SDS011;5747;56.748;13.882;2023-08-06T02:52:24;5.60;;;1.80;;
11384;SDS011;5747;56.748;13.882;2023-08-06T02:54:52;4.03;;;1.87;;
11384;SDS011;5747;56.748;13.882;2023-08-06T02:57:20;5.57;;;2.00;;
11384;SDS011;5747;56.748;13.882;2023-08-06T02:59:50;3.00;;;2.10;;
11384;SDS011;5747;56.748;13.882;2023-08-06T03:02:22;2.37;;;2.00;;
11384;SDS011;5747;56.748;13.882;2023-08-06T03:05:08;2.50;;;2.30;;
11384;SDS011;5747;56.748;13.882;2023-08-06T03:07:41;5.20;;;2.23;;
11384;SDS011;5747;56.748;13.882;2023-08-06T03:10:16;2.93;;;2.10;;
11384;SDS011;5747;56.748;13.882;2023-08-06T03:12:44;2.70;;;2.30;;
11384;SDS011;5747;56.748;13.882;2023-08-06T03:15:12;2.83;;;2.50;;
11384;SDS011;5747;56.748;13.882;2023-08-06T03:17:44;2.83;;;2.40;;
11384;SDS011;5747;56.748;13.882;2023-08-06T03:20:13;6.83;;;2.33;;
11384;SDS011;5747;56.748;13.882;2023-08-06T03:22:41;3.53;;;2.70;;
11384;SDS011;5747;56.748;13.882;2023-08-06T03:25:10;54.43;;;3.37;;
11384;SDS011;5747;56.748;13.882;2023-08-06T03:27:41;3.00;;;2.10;;
11384;SDS011;5747;56.748;13.882;2023-08-06T03:30:11;2.60;;;2.23;;
11384;SDS011;5747;56.748;13.882;2023-08-06T03:32:40;3.63;;;2.30;;
11384;SDS011;5747;56.748;13.882;2023-08-06T03:35:10;5.17;;;2.63;;
11384;SDS011;5747;56.748;13.882;2023-08-06T03:37:38;3.20;;;2.47;;
11384;SDS011;5747;56.748;13.882;2023-08-06T03:40:07;4.00;;;2.23;;
11384;SDS011;5747;56.748;13.882;2023-08-06T03:42:36;3.80;;;2.13;;
11384;SDS011;5747;56.748;13.882;2023-08-06T03:45:04;6.53;;;2.20;;
11384;SDS011;5747;56.748;13.882;2023-08-06T03:47:34;4.77;;;2.33;;
11384;SDS011;5747;56.748;13.882;2023-08-06T03:50:03;2.50;;;2.30;;
11384;SDS011;5747;56.748;13.882;2023-08-06T03:52:33;2.57;;;2.17;;
11384;SDS011;5747;56.748;13.882;2023-08-06T03:55:02;2.63;;;2.30;;
11384;SDS011;5747;56.748;13.882;2023-08-06T03:57:30;2.73;;;2.40;;
11384;SDS011;5747;56.748;13.882;2023-08-06T03:59:58;3.07;;;2.40;;
11384;SDS011;5747;56.748;13.882;2023-08-06T04:02:28;4.20;;;2.10;;
11384;SDS011;5747;56.748;13.882;2023-08-06T04:04:56;2.73;;;2.27;;
11384;SDS011;5747;56.748;13.882;2023-08-06T04:07:25;3.80;;;2.87;;
11384;SDS011;5747;56.748;13.882;2023-08-06T04:09:56;2.27;;;2.07;;
11384;SDS011;5747;56.748;13.882;2023-08-06T04:12:25;6.33;;;2.63;;
11384;SDS011;5747;56.748;13.882;2023-08-06T04:14:53;3.93;;;2.60;;
11384;SDS011;5747;56.748;13.882;2023-08-06T04:17:22;5.30;;;2.63;;
11384;SDS011;5747;56.748;13.882;2023-08-06T04:19:50;2.97;;;2.30;;
11384;SDS011;5747;56.748;13.882;2023-08-06T04:22:20;2.77;;;2.33;;
11384;SDS011;5747;56.748;13.882;2023-08-06T04:24:48;4.20;;;2.37;;
11384;SDS011;5747;56.748;13.882;2023-08-06T04:27:18;2.47;;;2.27;;
11384;SDS011;5747;56.748;13.882;2023-08-06T04:29:48;3.17;;;2.87;;
11384;SDS011;5747;56.748;13.882;2023-08-06T04:32:16;4.30;;;2.40;;
11384;SDS011;5747;56.748;13.882;2023-08-06T04:34:49;4.60;;;2.63;;
11384;SDS011;5747;56.748;13.882;2023-08-06T04:37:17;5.00;;;2.87;;
11384;SDS011;5747;56.748;13.882;2023-08-06T04:39:46;3.53;;;3.00;;
11384;SDS011;5747;56.748;13.882;2023-08-06T04:42:14;3.63;;;2.70;;
11384;SDS011;5747;56.748;13.882;2023-08-06T04:44:44;3.47;;;2.83;;
11384;SDS011;5747;56.748;13.882;2023-08-06T04:47:13;4.47;;;2.83;;
11384;SDS011;5747;56.748;13.882;2023-08-06T04:49:44;4.67;;;2.80;;
11384;SDS011;5747;56.748;13.882;2023-08-06T04:52:12;4.17;;;2.93;;
11384;SDS011;5747;56.748;13.882;2023-08-06T04:54:40;3.13;;;2.83;;
11384;SDS011;5747;56.748;13.882;2023-08-06T04:57:08;5.10;;;3.13;;
11384;SDS011;5747;56.748;13.882;2023-08-06T04:59:36;3.93;;;3.30;;
11384;SDS011;5747;56.748;13.882;2023-08-06T05:02:06;4.00;;;3.37;;
11384;SDS011;5747;56.748;13.882;2023-08-06T05:04:34;7.97;;;3.60;;
11384;SDS011;5747;56.748;13.882;2023-08-06T05:07:02;4.77;;;3.33;;
11384;SDS011;5747;56.748;13.882;2023-08-06T05:09:31;6.90;;;3.27;;
11384;SDS011;5747;56.748;13.882;2023-08-06T05:12:00;4.93;;;3.63;;
11384;SDS011;5747;56.748;13.882;2023-08-06T05:14:29;6.37;;;3.07;;
11384;SDS011;5747;56.748;13.882;2023-08-06T05:16:57;4.57;;;3.37;;
11384;SDS011;5747;56.748;13.882;2023-08-06T05:19:27;5.63;;;3.67;;
11384;SDS011;5747;56.748;13.882;2023-08-06T05:21:55;6.13;;;3.30;;
11384;SDS011;5747;56.748;13.882;2023-08-06T05:24:23;4.03;;;3.63;;
11384;SDS011;5747;56.748;13.882;2023-08-06T05:26:51;5.43;;;3.30;;
11384;SDS011;5747;56.748;13.882;2023-08-06T05:29:19;3.67;;;3.20;;
11384;SDS011;5747;56.748;13.882;2023-08-06T05:31:47;5.27;;;3.17;;
11384;SDS011;5747;56.748;13.882;2023-08-06T05:34:15;5.03;;;2.80;;
11384;SDS011;5747;56.748;13.882;2023-08-06T05:36:45;4.53;;;2.87;;
11384;SDS011;5747;56.748;13.882;2023-08-06T05:39:13;3.73;;;2.40;;
11384;SDS011;5747;56.748;13.882;2023-08-06T05:41:41;4.20;;;2.70;;
11384;SDS011;5747;56.748;13.882;2023-08-06T05:44:09;3.67;;;2.40;;
11384;SDS011;5747;56.748;13.882;2023-08-06T05:46:37;3.97;;;2.33;;
11384;SDS011;5747;56.748;13.882;2023-08-06T05:49:05;5.27;;;2.47;;
11384;SDS011;5747;56.748;13.882;2023-08-06T05:51:34;2.40;;;2.20;;
11384;SDS011;5747;56.748;13.882;2023-08-06T05:54:03;6.03;;;2.23;;
11384;SDS011;5747;56.748;13.882;2023-08-06T05:56:31;2.27;;;2.07;;
11384;SDS011;5747;56.748;13.882;2023-08-06T05:58:59;3.10;;;2.33;;
11384;SDS011;5747;56.748;13.882;2023-08-06T06:01:27;3.53;;;2.50;;
11384;SDS011;5747;56.748;13.882;2023-08-06T06:03:56;3.60;;;2.00;;
11384;SDS011;5747;56.748;13.882;2023-08-06T06:06:24;2.13;;;1.93;;
11384;SDS011;5747;56.748;13.882;2023-08-06T06:08:52;4.07;;;2.40;;
11384;SDS011;5747;56.748;13.882;2023-08-06T06:11:21;3.90;;;2.00;;
11384;SDS011;5747;56.748;13.882;2023-08-06T06:13:50;5.47;;;2.53;;
11384;SDS011;5747;56.748;13.882;2023-08-06T06:16:19;2.03;;;1.83;;
11384;SDS011;5747;56.748;13.882;2023-08-06T06:18:47;4.10;;;2.60;;
11384;SDS011;5747;56.748;13.882;2023-08-06T06:21:15;3.07;;;2.00;;
11384;SDS011;5747;56.748;13.882;2023-08-06T06:23:43;2.97;;;1.87;;
11384;SDS011;5747;56.748;13.882;2023-08-06T06:26:11;5.03;;;2.27;;
11384;SDS011;5747;56.748;13.882;2023-08-06T06:28:41;2.40;;;1.70;;
11384;SDS011;5747;56.748;13.882;2023-08-06T06:31:09;3.10;;;2.20;;
11384;SDS011;5747;56.748;13.882;2023-08-06T06:33:37;5.10;;;1.90;;
11384;SDS011;5747;56.748;13.882;2023-08-06T06:36:06;3.10;;;2.10;;
11384;SDS011;5747;56.748;13.882;2023-08-06T06:38:35;3.73;;;2.00;;
11384;SDS011;5747;56.748;13.882;2023-08-06T06:41:04;1.70;;;1.60;;
11384;SDS011;5747;56.748;13.882;2023-08-06T06:43:32;3.43;;;2.10;;
11384;SDS011;5747;56.748;13.882;2023-08-06T06:46:01;2.07;;;1.87;;
11384;SDS011;5747;56.748;13.882;2023-08-06T06:48:31;2.90;;;1.80;;
11384;SDS011;5747;56.748;13.882;2023-08-06T06:51:00;4.63;;;1.97;;
11384;SDS011;5747;56.748;13.882;2023-08-06T06:53:29;4.33;;;2.20;;
11384;SDS011;5747;56.748;13.882;2023-08-06T06:56:01;3.87;;;2.10;;
11384;SDS011;5747;56.748;13.882;2023-08-06T06:58:30;4.90;;;2.07;;
11384;SDS011;5747;56.748;13.882;2023-08-06T07:00:58;4.20;;;2.20;;
11384;SDS011;5747;56.748;13.882;2023-08-06T07:03:27;3.17;;;2.10;;
11384;SDS011;5747;56.748;13.882;2023-08-06T07:05:56;3.10;;;2.00;;
11384;SDS011;5747;56.748;13.882;2023-08-06T07:08:25;3.67;;;1.87;;
11384;SDS011;5747;56.748;13.882;2023-08-06T07:10:59;4.77;;;1.97;;
11384;SDS011;5747;56.748;13.882;2023-08-06T07:13:29;2.80;;;2.13;;
11384;SDS011;5747;56.748;13.882;2023-08-06T07:15:57;2.20;;;2.00;;
11384;SDS011;5747;56.748;13.882;2023-08-06T07:18:25;5.53;;;1.90;;
11384;SDS011;5747;56.748;13.882;2023-08-06T07:20:55;4.67;;;2.20;;
11384;SDS011;5747;56.748;13.882;2023-08-06T07:23:24;2.83;;;1.83;;
11384;SDS011;5747;56.748;13.882;2023-08-06T07:25:53;2.20;;;1.90;;
11384;SDS011;5747;56.748;13.882;2023-08-06T07:28:21;3.53;;;2.10;;
11384;SDS011;5747;56.748;13.882;2023-08-06T07:30:49;4.00;;;2.10;;
11384;SDS011;5747;56.748;13.882;2023-08-06T07:33:17;2.47;;;1.80;;
11384;SDS011;5747;56.748;13.882;2023-08-06T07:35:47;3.27;;;1.83;;
11384;SDS011;5747;56.748;13.882;2023-08-06T07:38:15;2.93;;;1.73;;
11384;SDS011;5747;56.748;13.882;2023-08-06T07:40:43;4.70;;;1.83;;
11384;SDS011;5747;56.748;13.882;2023-08-06T07:43:12;2.70;;;2.00;;
11384;SDS011;5747;56.748;13.882;2023-08-06T07:45:40;3.20;;;2.17;;
11384;SDS011;5747;56.748;13.882;2023-08-06T07:48:08;5.03;;;1.97;;
11384;SDS011;5747;56.748;13.882;2023-08-06T07:50:36;3.17;;;2.17;;
11384;SDS011;5747;56.748;13.882;2023-08-06T07:53:06;3.67;;;2.20;;
11384;SDS011;5747;56.748;13.882;2023-08-06T07:55:34;2.60;;;2.07;;
11384;SDS011;5747;56.748;13.882;2023-08-06T07:58:02;4.33;;;2.03;;
11384;SDS011;5747;56.748;13.882;2023-08-06T08:00:31;3.37;;;2.13;;
11384;SDS011;5747;56.748;13.882;2023-08-06T08:02:59;4.03;;;2.00;;
11384;SDS011;5747;56.748;13.882;2023-08-06T08:05:28;3.03;;;2.10;;
11384;SDS011;5747;56.748;13.882;2023-08-06T08:07:56;2.90;;;2.27;;
11384;SDS011;5747;56.748;13.882;2023-08-06T08:10:25;3.83;;;2.33;;
11384;SDS011;5747;56.748;13.882;2023-08-06T08:12:53;3.20;;;2.00;;
11384;SDS011;5747;56.748;13.882;2023-08-06T08:15:22;4.70;;;2.20;;
11384;SDS011;5747;56.748;13.882;2023-08-06T08:17:50;3.53;;;2.00;;
11384;SDS011;5747;56.748;13.882;2023-08-06T08:20:18;3.03;;;2.20;;
11384;SDS011;5747;56.748;13.882;2023-08-06T08:22:47;3.67;;;2.03;;
11384;SDS011;5747;56.748;13.882;2023-08-06T08:25:16;3.73;;;2.47;;
11384;SDS011;5747;56.748;13.882;2023-08-06T08:27:45;5.63;;;2.33;;
11384;SDS011;5747;56.748;13.882;2023-08-06T08:30:14;4.30;;;2.00;;
11384;SDS011;5747;56.748;13.882;2023-08-06T08:32:42;4.20;;;2.07;;
11384;SDS011;5747;56.748;13.882;2023-08-06T08:35:10;2.73;;;2.23;;
11384;SDS011;5747;56.748;13.882;2023-08-06T08:37:39;5.00;;;2.10;;
11384;SDS011;5747;56.748;13.882;2023-08-06T08:40:07;4.20;;;2.00;;
11384;SDS011;5747;56.748;13.882;2023-08-06T08:42:36;4.43;;;2.20;;
11384;SDS011;5747;56.748;13.882;2023-08-06T08:45:09;3.37;;;2.40;;
11384;SDS011;5747;56.748;13.882;2023-08-06T08:47:41;5.47;;;2.20;;
11384;SDS011;5747;56.748;13.882;2023-08-06T08:50:10;4.80;;;2.60;;
11384;SDS011;5747;56.748;13.882;2023-08-06T08:52:39;2.90;;;2.30;;
11384;SDS011;5747;56.748;13.882;2023-08-06T08:55:08;7.23;;;2.50;;
11384;SDS011;5747;56.748;13.882;2023-08-06T08:57:36;7.27;;;2.30;;
11384;SDS011;5747;56.748;13.882;2023-08-06T09:00:05;4.93;;;2.10;;
11384;SDS011;5747;56.748;13.882;2023-08-06T09:02:36;3.93;;;2.20;;
11384;SDS011;5747;56.748;13.882;2023-08-06T09:05:07;2.67;;;2.13;;
11384;SDS011;5747;56.748;13.882;2023-08-06T09:07:38;3.57;;;2.20;;
11384;SDS011;5747;56.748;13.882;2023-08-06T09:10:10;5.40;;;2.40;;
11384;SDS011;5747;56.748;13.882;2023-08-06T09:12:40;5.63;;;2.60;;
11384;SDS011;5747;56.748;13.882;2023-08-06T09:15:10;3.37;;;2.17;;
11384;SDS011;5747;56.748;13.882;2023-08-06T09:17:40;7.30;;;2.20;;
11384;SDS011;5747;56.748;13.882;2023-08-06T09:20:11;4.43;;;2.20;;
11384;SDS011;5747;56.748;13.882;2023-08-06T09:22:41;4.30;;;2.20;;
11384;SDS011;5747;56.748;13.882;2023-08-06T09:25:10;4.33;;;2.37;;
11384;SDS011;5747;56.748;13.882;2023-08-06T09:27:40;7.93;;;2.30;;
11384;SDS011;5747;56.748;13.882;2023-08-06T09:30:19;5.67;;;2.50;;
11384;SDS011;5747;56.748;13.882;2023-08-06T09:32:57;2.77;;;2.10;;
11384;SDS011;5747;56.748;13.882;2023-08-06T09:35:27;3.60;;;2.17;;
11384;SDS011;5747;56.748;13.882;2023-08-06T09:37:56;5.60;;;2.53;;
11384;SDS011;5747;56.748;13.882;2023-08-06T09:40:34;4.57;;;2.43;;
11384;SDS011;5747;56.748;13.882;2023-08-06T09:43:03;4.27;;;2.23;;
11384;SDS011;5747;56.748;13.882;2023-08-06T09:45:33;4.53;;;2.50;;
11384;SDS011;5747;56.748;13.882;2023-08-06T09:48:03;6.13;;;2.67;;
11384;SDS011;5747;56.748;13.882;2023-08-06T09:50:33;3.17;;;2.30;;
11384;SDS011;5747;56.748;13.882;2023-08-06T09:53:03;6.13;;;2.40;;
11384;SDS011;5747;56.748;13.882;2023-08-06T09:55:33;4.47;;;2.43;;
11384;SDS011;5747;56.748;13.882;2023-08-06T09:58:01;6.40;;;2.37;;
11384;SDS011;5747;56.748;13.882;2023-08-06T10:00:33;3.90;;;2.47;;
11384;SDS011;5747;56.748;13.882;2023-08-06T10:03:05;5.73;;;2.57;;
11384;SDS011;5747;56.748;13.882;2023-08-06T10:05:35;4.70;;;2.37;;
11384;SDS011;5747;56.748;13.882;2023-08-06T10:08:04;7.07;;;2.70;;
11384;SDS011;5747;56.748;13.882;2023-08-06T10:10:34;6.50;;;2.57;;
11384;SDS011;5747;56.748;13.882;2023-08-06T10:13:02;4.17;;;2.57;;
11384;SDS011;5747;56.748;13.882;2023-08-06T10:15:35;3.37;;;2.63;;
11384;SDS011;5747;56.748;13.882;2023-08-06T10:18:04;4.87;;;2.53;;
11384;SDS011;5747;56.748;13.882;2023-08-06T10:20:34;4.87;;;2.93;;
11384;SDS011;5747;56.748;13.882;2023-08-06T10:23:03;3.43;;;2.40;;
11384;SDS011;5747;56.748;13.882;2023-08-06T10:25:32;7.93;;;2.60;;
11384;SDS011;5747;56.748;13.882;2023-08-06T10:28:06;7.73;;;2.70;;
11384;SDS011;5747;56.748;13.882;2023-08-06T10:30:42;3.60;;;2.70;;
11384;SDS011;5747;56.748;13.882;2023-08-06T10:33:11;6.30;;;2.90;;
11384;SDS011;5747;56.748;13.882;2023-08-06T10:35:41;7.03;;;3.10;;
11384;SDS011;5747;56.748;13.882;2023-08-06T10:38:11;5.33;;;2.50;;
11384;SDS011;5747;56.748;13.882;2023-08-06T10:40:43;3.90;;;2.60;;
11384;SDS011;5747;56.748;13.882;2023-08-06T10:43:24;6.50;;;2.80;;
11384;SDS011;5747;56.748;13.882;2023-08-06T10:45:55;8.83;;;3.07;;
11384;SDS011;5747;56.748;13.882;2023-08-06T10:48:34;8.97;;;3.27;;
11384;SDS011;5747;56.748;13.882;2023-08-06T10:51:06;7.53;;;3.70;;
11384;SDS011;5747;56.748;13.882;2023-08-06T10:53:36;6.93;;;3.50;;
11384;SDS011;5747;56.748;13.882;2023-08-06T10:56:11;9.97;;;3.80;;
11384;SDS011;5747;56.748;13.882;2023-08-06T10:58:40;9.93;;;3.60;;
11384;SDS011;5747;56.748;13.882;2023-08-06T11:01:10;7.97;;;4.20;;
11384;SDS011;5747;56.748;13.882;2023-08-06T11:03:39;9.63;;;4.20;;
11384;SDS011;5747;56.748;13.882;2023-08-06T11:06:08;7.00;;;4.17;;
11384;SDS011;5747;56.748;13.882;2023-08-06T11:08:37;6.40;;;4.37;;
11384;SDS011;5747;56.748;13.882;2023-08-06T11:11:08;9.60;;;4.40;;
11384;SDS011;5747;56.748;13.882;2023-08-06T11:13:37;11.63;;;4.57;;
11384;SDS011;5747;56.748;13.882;2023-08-06T11:16:05;8.40;;;4.70;;
11384;SDS011;5747;56.748;13.882;2023-08-06T11:18:35;8.43;;;4.33;;
11384;SDS011;5747;56.748;13.882;2023-08-06T11:21:03;7.73;;;4.83;;
11384;SDS011;5747;56.748;13.882;2023-08-06T11:23:32;10.00;;;4.70;;
11384;SDS011;5747;56.748;13.882;2023-08-06T11:26:00;8.03;;;4.27;;
11384;SDS011;5747;56.748;13.882;2023-08-06T11:28:28;6.67;;;4.27;;
11384;SDS011;5747;56.748;13.882;2023-08-06T11:30:57;7.73;;;4.27;;
11384;SDS011;5747;56.748;13.882;2023-08-06T11:33:28;5.73;;;4.17;;
11384;SDS011;5747;56.748;13.882;2023-08-06T11:35:59;6.90;;;4.27;;
11384;SDS011;5747;56.748;13.882;2023-08-06T11:38:28;8.97;;;4.37;;
11384;SDS011;5747;56.748;13.882;2023-08-06T11:40:57;8.93;;;4.40;;
11384;SDS011;5747;56.748;13.882;2023-08-06T11:43:25;7.20;;;4.30;;
11384;SDS011;5747;56.748;13.882;2023-08-06T11:45:54;12.93;;;4.80;;
11384;SDS011;5747;56.748;13.882;2023-08-06T11:48:24;5.73;;;4.27;;
11384;SDS011;5747;56.748;13.882;2023-08-06T11:50:53;4.73;;;4.10;;
11384;SDS011;5747;56.748;13.882;2023-08-06T11:53:27;5.57;;;4.03;;
11384;SDS011;5747;56.748;13.882;2023-08-06T11:55:55;6.97;;;4.40;;
11384;SDS011;5747;56.748;13.882;2023-08-06T11:58:24;7.97;;;3.90;;
11384;SDS011;5747;56.748;13.882;2023-08-06T12:00:52;6.80;;;3.77;;
11384;SDS011;5747;56.748;13.882;2023-08-06T12:03:22;5.33;;;3.87;;
11384;SDS011;5747;56.748;13.882;2023-08-06T12:05:54;6.40;;;4.00;;
11384;SDS011;5747;56.748;13.882;2023-08-06T12:08:25;7.50;;;3.67;;
11384;SDS011;5747;56.748;13.882;2023-08-06T12:10:55;6.97;;;4.10;;
11384;SDS011;5747;56.748;13.882;2023-08-06T12:13:23;7.93;;;4.33;;
11384;SDS011;5747;56.748;13.882;2023-08-06T12:15:53;6.20;;;3.93;;
11384;SDS011;5747;56.748;13.882;2023-08-06T12:18:23;9.80;;;4.47;;
11384;SDS011;5747;56.748;13.882;2023-08-06T12:20:52;10.80;;;3.97;;
11384;SDS011;5747;56.748;13.882;2023-08-06T12:23:20;8.73;;;4.30;;
11384;SDS011;5747;56.748;13.882;2023-08-06T12:25:49;7.87;;;4.53;;
11384;SDS011;5747;56.748;13.882;2023-08-06T12:28:17;9.60;;;4.70;;
11384;SDS011;5747;56.748;13.882;2023-08-06T12:30:49;13.23;;;4.63;;
11384;SDS011;5747;56.748;13.882;2023-08-06T12:33:17;9.93;;;4.33;;
11384;SDS011;5747;56.748;13.882;2023-08-06T12:35:46;7.50;;;4.70;;
11384;SDS011;5747;56.748;13.882;2023-08-06T12:38:14;10.10;;;4.53;;
11384;SDS011;5747;56.748;13.882;2023-08-06T12:40:42;7.93;;;4.80;;
11384;SDS011;5747;56.748;13.882;2023-08-06T12:43:12;6.60;;;4.47;;
11384;SDS011;5747;56.748;13.882;2023-08-06T12:45:40;9.47;;;4.30;;
11384;SDS011;5747;56.748;13.882;2023-08-06T12:48:08;8.00;;;4.30;;
11384;SDS011;5747;56.748;13.882;2023-08-06T12:50:36;9.57;;;4.17;;
11384;SDS011;5747;56.748;13.882;2023-08-06T12:53:04;7.77;;;4.47;;
11384;SDS011;5747;56.748;13.882;2023-08-06T12:55:33;6.03;;;4.27;;
11384;SDS011;5747;56.748;13.882;2023-08-06T12:58:01;5.43;;;4.33;;
11384;SDS011;5747;56.748;13.882;2023-08-06T13:00:30;7.57;;;4.60;;
11384;SDS011;5747;56.748;13.882;2023-08-06T13:02:58;6.60;;;4.27;;
11384;SDS011;5747;56.748;13.882;2023-08-06T13:05:27;6.93;;;4.27;;
11384;SDS011;5747;56.748;13.882;2023-08-06T13:07:55;7.63;;;4.10;;
11384;SDS011;5747;56.748;13.882;2023-08-06T13:10:23;5.87;;;4.30;;
11384;SDS011;5747;56.748;13.882;2023-08-06T13:12:52;6.33;;;4.60;;
11384;SDS011;5747;56.748;13.882;2023-08-06T13:15:20;6.90;;;4.30;;
11384;SDS011;5747;56.748;13.882;2023-08-06T13:17:50;7.03;;;4.63;;
11384;SDS011;5747;56.748;13.882;2023-08-06T13:20:18;7.23;;;4.70;;
11384;SDS011;5747;56.748;13.882;2023-08-06T13:22:47;6.77;;;4.67;;
11384;SDS011;5747;56.748;13.882;2023-08-06T13:25:17;9.87;;;4.37;;
11384;SDS011;5747;56.748;13.882;2023-08-06T13:27:46;7.90;;;4.70;;
11384;SDS011;5747;56.748;13.882;2023-08-06T13:30:15;7.77;;;4.80;;
11384;SDS011;5747;56.748;13.882;2023-08-06T13:32:44;8.37;;;4.47;;
11384;SDS011;5747;56.748;13.882;2023-08-06T13:35:14;10.83;;;5.70;;
11384;SDS011;5747;56.748;13.882;2023-08-06T13:37:42;10.23;;;4.20;;
11384;SDS011;5747;56.748;13.882;2023-08-06T13:40:10;7.17;;;4.27;;
11384;SDS011;5747;56.748;13.882;2023-08-06T13:42:38;6.13;;;4.27;;
11384;SDS011;5747;56.748;13.882;2023-08-06T13:45:07;7.70;;;4.63;;
11384;SDS011;5747;56.748;13.882;2023-08-06T13:47:35;8.67;;;4.10;;
11384;SDS011;5747;56.748;13.882;2023-08-06T13:50:04;6.17;;;4.40;;
11384;SDS011;5747;56.748;13.882;2023-08-06T13:52:43;8.97;;;4.70;;
11384;SDS011;5747;56.748;13.882;2023-08-06T13:55:11;6.03;;;4.40;;
11384;SDS011;5747;56.748;13.882;2023-08-06T13:57:40;9.73;;;4.50;;
11384;SDS011;5747;56.748;13.882;2023-08-06T14:00:08;7.03;;;4.20;;
11384;SDS011;5747;56.748;13.882;2023-08-06T14:02:41;5.80;;;4.33;;
11384;SDS011;5747;56.748;13.882;2023-08-06T14:05:11;7.13;;;4.30;;
11384;SDS011;5747;56.748;13.882;2023-08-06T14:07:40;6.60;;;4.10;;
11384;SDS011;5747;56.748;13.882;2023-08-06T14:10:09;7.13;;;4.47;;
11384;SDS011;5747;56.748;13.882;2023-08-06T14:12:37;7.27;;;3.40;;
11384;SDS011;5747;56.748;13.882;2023-08-06T14:15:06;5.17;;;3.73;;
11384;SDS011;5747;56.748;13.882;2023-08-06T14:17:35;6.03;;;3.87;;
11384;SDS011;5747;56.748;13.882;2023-08-06T14:20:03;5.07;;;3.43;;
11384;SDS011;5747;56.748;13.882;2023-08-06T14:22:34;5.47;;;3.33;;
11384;SDS011;5747;56.748;13.882;2023-08-06T14:25:02;5.33;;;2.93;;
11384;SDS011;5747;56.748;13.882;2023-08-06T14:27:32;4.43;;;3.30;;
11384;SDS011;5747;56.748;13.882;2023-08-06T14:30:00;4.63;;;3.00;;
11384;SDS011;5747;56.748;13.882;2023-08-06T14:32:29;3.90;;;3.07;;
11384;SDS011;5747;56.748;13.882;2023-08-06T14:34:57;5.33;;;2.87;;
11384;SDS011;5747;56.748;13.882;2023-08-06T14:37:26;4.03;;;2.40;;
11384;SDS011;5747;56.748;13.882;2023-08-06T14:39:54;3.10;;;2.40;;
11384;SDS011;5747;56.748;13.882;2023-08-06T14:42:22;4.30;;;2.90;;
11384;SDS011;5747;56.748;13.882;2023-08-06T14:44:52;4.03;;;2.50;;
11384;SDS011;5747;56.748;13.882;2023-08-06T14:47:20;5.27;;;2.97;;
11384;SDS011;5747;56.748;13.882;2023-08-06T14:49:48;3.30;;;2.80;;
11384;SDS011;5747;56.748;13.882;2023-08-06T14:52:17;5.27;;;2.67;;
11384;SDS011;5747;56.748;13.882;2023-08-06T14:54:45;6.37;;;3.10;;
11384;SDS011;5747;56.748;13.882;2023-08-06T14:57:13;3.33;;;2.97;;
11384;SDS011;5747;56.748;13.882;2023-08-06T14:59:41;4.20;;;2.73;;